EJU63AG LFMN-LEPA
Flight info
| Callsign | EJU63AG |
|---|---|
| Flight time | 1h 11m |
| Altitude | 38000 |
| Route | EPOLO DCT SOFFY DCT VATIR N852 VERSO L129 LUNIK |
| Aircraft | A20N/M-SDE2E3FGHIJ1RWXYZ/LB1G1 |
Departure
| Time | 2026-05-06 15:03 |
|---|---|
| Airport | Nice-Côte d'Azur Airport (LFMN) |
Arrival
| Time | 2026-05-06 16:15 |
|---|---|
| Airport | Palma de Mallorca Airport (LEPA) |
| Time | Latitude | Longitude | Altitude | Speed | Heading |
|---|---|---|---|---|---|
| 2026-05-06 14:32 | 43.66170 | 7.20664 | 32 ft | 0 kts | 260° |
| 2026-05-06 14:52 | 43.66172 | 7.20672 | 31 ft | 2 kts | 260° |
| 2026-05-06 14:52 | 43.66174 | 7.20693 | 31 ft | 2 kts | 261° |
| 2026-05-06 14:52 | 43.66177 | 7.20713 | 31 ft | 2 kts | 260° |
| 2026-05-06 14:53 | 43.66179 | 7.20734 | 30 ft | 2 kts | 260° |
| 2026-05-06 14:53 | 43.66181 | 7.20747 | 30 ft | 2 kts | 261° |
| 2026-05-06 14:53 | 43.66187 | 7.20765 | 30 ft | 2 kts | 219° |
| 2026-05-06 14:53 | 43.66201 | 7.20774 | 30 ft | 2 kts | 185° |
| 2026-05-06 14:54 | 43.66209 | 7.20774 | 31 ft | 1 kts | 165° |
| 2026-05-06 14:54 | 43.66214 | 7.20772 | 31 ft | 0 kts | 170° |
| 2026-05-06 14:56 | 43.66205 | 7.20774 | 30 ft | 3 kts | 171° |
| 2026-05-06 14:56 | 43.66167 | 7.20783 | 30 ft | 7 kts | 170° |
| 2026-05-06 14:56 | 43.66104 | 7.20797 | 30 ft | 10 kts | 172° |
| 2026-05-06 14:56 | 43.66032 | 7.20811 | 29 ft | 10 kts | 171° |
| 2026-05-06 14:57 | 43.65973 | 7.20854 | 29 ft | 9 kts | 117° |
| 2026-05-06 14:57 | 43.65986 | 7.20931 | 28 ft | 9 kts | 45° |
| 2026-05-06 14:57 | 43.66026 | 7.21011 | 28 ft | 11 kts | 83° |
| 2026-05-06 14:57 | 43.65977 | 7.21078 | 28 ft | 10 kts | 138° |
| 2026-05-06 14:58 | 43.65975 | 7.21174 | 28 ft | 14 kts | 52° |
| 2026-05-06 14:58 | 43.66051 | 7.21278 | 27 ft | 15 kts | 45° |
| 2026-05-06 14:58 | 43.66131 | 7.21390 | 27 ft | 17 kts | 44° |
| 2026-05-06 14:58 | 43.66222 | 7.21515 | 27 ft | 19 kts | 46° |
| 2026-05-06 14:59 | 43.66316 | 7.21648 | 27 ft | 19 kts | 45° |
| 2026-05-06 14:59 | 43.66413 | 7.21779 | 27 ft | 19 kts | 43° |
| 2026-05-06 14:59 | 43.66510 | 7.21910 | 27 ft | 20 kts | 45° |
| 2026-05-06 14:59 | 43.66547 | 7.22037 | 27 ft | 13 kts | 131° |
| 2026-05-06 15:00 | 43.66483 | 7.22123 | 26 ft | 12 kts | 137° |
| 2026-05-06 15:00 | 43.66420 | 7.22205 | 26 ft | 12 kts | 134° |
| 2026-05-06 15:00 | 43.66370 | 7.22308 | 26 ft | 13 kts | 105° |
| 2026-05-06 15:00 | 43.66406 | 7.22414 | 26 ft | 13 kts | 38° |
| 2026-05-06 15:01 | 43.66479 | 7.22508 | 26 ft | 14 kts | 45° |
| 2026-05-06 15:01 | 43.66555 | 7.22612 | 26 ft | 16 kts | 45° |
| 2026-05-06 15:01 | 43.66575 | 7.22726 | 26 ft | 12 kts | 120° |
| 2026-05-06 15:01 | 43.66502 | 7.22746 | 26 ft | 12 kts | 210° |
| 2026-05-06 15:02 | 43.66462 | 7.22705 | 25 ft | 0 kts | 223° |
| 2026-05-06 15:02 | 43.66443 | 7.22679 | 26 ft | 21 kts | 223° |
| 2026-05-06 15:02 | 43.66152 | 7.22278 | 25 ft | 93 kts | 223° |
| 2026-05-06 15:03 | 43.65560 | 7.21461 | 32 ft | 148 kts | 224° |
| 2026-05-06 15:03 | 43.64819 | 7.20427 | 546 ft | 156 kts | 224° |
| 2026-05-06 15:03 | 43.64030 | 7.19348 | 1193 ft | 164 kts | 224° |
| 2026-05-06 15:03 | 43.63187 | 7.18210 | 1767 ft | 179 kts | 225° |
| 2026-05-06 15:04 | 43.62257 | 7.16948 | 2324 ft | 196 kts | 225° |
| 2026-05-06 15:04 | 43.61172 | 7.15727 | 2884 ft | 214 kts | 205° |
| 2026-05-06 15:04 | 43.59675 | 7.15481 | 3629 ft | 227 kts | 169° |
| 2026-05-06 15:04 | 43.58241 | 7.16386 | 4506 ft | 232 kts | 152° |
| 2026-05-06 15:05 | 43.56859 | 7.17528 | 5352 ft | 235 kts | 152° |
| 2026-05-06 15:05 | 43.55516 | 7.18778 | 6148 ft | 241 kts | 143° |
| 2026-05-06 15:05 | 43.54292 | 7.20417 | 6773 ft | 249 kts | 135° |
| 2026-05-06 15:05 | 43.53144 | 7.22189 | 7644 ft | 251 kts | 134° |
| 2026-05-06 15:06 | 43.52006 | 7.23976 | 8495 ft | 252 kts | 134° |
| 2026-05-06 15:06 | 43.50847 | 7.25779 | 9308 ft | 255 kts | 134° |
| 2026-05-06 15:06 | 43.49677 | 7.27587 | 10109 ft | 257 kts | 135° |
| 2026-05-06 15:06 | 43.48472 | 7.29436 | 10872 ft | 260 kts | 137° |
| 2026-05-06 15:07 | 43.47047 | 7.30871 | 11580 ft | 255 kts | 166° |
| 2026-05-06 15:07 | 43.45330 | 7.31119 | 12159 ft | 256 kts | 189° |
| 2026-05-06 15:07 | 43.43496 | 7.30862 | 12586 ft | 273 kts | 190° |
| 2026-05-06 15:07 | 43.41533 | 7.30592 | 12987 ft | 291 kts | 189° |
| 2026-05-06 15:08 | 43.39476 | 7.30339 | 13367 ft | 309 kts | 188° |
| 2026-05-06 15:08 | 43.37292 | 7.30093 | 13983 ft | 318 kts | 188° |
| 2026-05-06 15:08 | 43.35117 | 7.29864 | 14788 ft | 319 kts | 188° |
| 2026-05-06 15:08 | 43.32898 | 7.29633 | 15604 ft | 319 kts | 189° |
| 2026-05-06 15:09 | 43.30709 | 7.29287 | 16370 ft | 316 kts | 199° |
| 2026-05-06 15:09 | 43.28766 | 7.28045 | 17104 ft | 310 kts | 219° |
| 2026-05-06 15:09 | 43.27284 | 7.25953 | 17862 ft | 307 kts | 237° |
| 2026-05-06 15:09 | 43.26344 | 7.23367 | 18550 ft | 310 kts | 246° |
| 2026-05-06 15:10 | 43.25490 | 7.20638 | 19132 ft | 315 kts | 245° |
| 2026-05-06 15:10 | 43.24610 | 7.17845 | 19783 ft | 318 kts | 245° |
| 2026-05-06 15:10 | 43.23744 | 7.15093 | 20437 ft | 320 kts | 245° |
| 2026-05-06 15:10 | 43.22856 | 7.12263 | 21068 ft | 323 kts | 245° |
| 2026-05-06 15:11 | 43.22086 | 7.09395 | 21675 ft | 328 kts | 254° |
| 2026-05-06 15:11 | 43.21738 | 7.06310 | 22263 ft | 333 kts | 259° |
| 2026-05-06 15:11 | 43.21480 | 7.03147 | 22827 ft | 336 kts | 259° |
| 2026-05-06 15:11 | 43.21218 | 6.99974 | 23390 ft | 338 kts | 259° |
| 2026-05-06 15:12 | 43.20935 | 6.96744 | 23949 ft | 341 kts | 258° |
| 2026-05-06 15:12 | 43.20640 | 6.93522 | 24497 ft | 343 kts | 258° |
| 2026-05-06 15:12 | 43.20337 | 6.90298 | 25051 ft | 345 kts | 258° |
| 2026-05-06 15:12 | 43.20022 | 6.87023 | 25560 ft | 347 kts | 257° |
| 2026-05-06 15:13 | 43.19704 | 6.83766 | 26041 ft | 349 kts | 258° |
| 2026-05-06 15:13 | 43.19377 | 6.80455 | 26516 ft | 351 kts | 257° |
| 2026-05-06 15:13 | 43.19051 | 6.77155 | 26996 ft | 353 kts | 257° |
| 2026-05-06 15:13 | 43.18718 | 6.73797 | 27454 ft | 355 kts | 257° |
| 2026-05-06 15:14 | 43.18383 | 6.70461 | 27888 ft | 357 kts | 257° |
| 2026-05-06 15:14 | 43.18043 | 6.67089 | 28310 ft | 359 kts | 257° |
| 2026-05-06 15:14 | 43.17701 | 6.63699 | 28717 ft | 361 kts | 257° |
| 2026-05-06 15:14 | 43.17360 | 6.60325 | 29094 ft | 364 kts | 257° |
| 2026-05-06 15:15 | 43.17009 | 6.56884 | 29483 ft | 365 kts | 257° |
| 2026-05-06 15:15 | 43.16655 | 6.53405 | 29869 ft | 367 kts | 257° |
| 2026-05-06 15:15 | 43.16304 | 6.49982 | 30222 ft | 369 kts | 257° |
| 2026-05-06 15:15 | 43.15945 | 6.46488 | 30568 ft | 371 kts | 257° |
| 2026-05-06 15:16 | 43.15588 | 6.43019 | 30901 ft | 373 kts | 257° |
| 2026-05-06 15:16 | 43.15224 | 6.39500 | 31233 ft | 374 kts | 257° |
| 2026-05-06 15:16 | 43.14858 | 6.35972 | 31634 ft | 373 kts | 257° |
| 2026-05-06 15:16 | 43.14489 | 6.32421 | 32059 ft | 372 kts | 257° |
| 2026-05-06 15:17 | 43.14129 | 6.28944 | 32465 ft | 371 kts | 257° |
| 2026-05-06 15:17 | 43.13763 | 6.25463 | 32850 ft | 369 kts | 257° |
| 2026-05-06 15:17 | 43.13403 | 6.22018 | 33197 ft | 369 kts | 257° |
| 2026-05-06 15:17 | 43.13039 | 6.18551 | 33530 ft | 368 kts | 257° |
| 2026-05-06 15:18 | 43.12674 | 6.15097 | 33856 ft | 368 kts | 257° |
| 2026-05-06 15:18 | 43.12306 | 6.11627 | 34204 ft | 367 kts | 257° |
| 2026-05-06 15:18 | 43.11942 | 6.08184 | 34506 ft | 366 kts | 257° |
| 2026-05-06 15:18 | 43.11578 | 6.04761 | 34729 ft | 366 kts | 257° |
| 2026-05-06 15:19 | 43.11212 | 6.01334 | 34930 ft | 366 kts | 258° |
| 2026-05-06 15:19 | 43.10842 | 5.97884 | 35125 ft | 367 kts | 258° |
| 2026-05-06 15:19 | 43.10475 | 5.94461 | 35329 ft | 367 kts | 257° |
| 2026-05-06 15:19 | 43.10106 | 5.91026 | 35506 ft | 367 kts | 258° |
| 2026-05-06 15:20 | 43.09731 | 5.87568 | 35656 ft | 367 kts | 258° |
| 2026-05-06 15:20 | 43.09354 | 5.84087 | 35796 ft | 368 kts | 258° |
| 2026-05-06 15:20 | 43.08979 | 5.80624 | 35938 ft | 369 kts | 258° |
| 2026-05-06 15:20 | 43.08602 | 5.77174 | 36121 ft | 369 kts | 258° |
| 2026-05-06 15:21 | 43.08225 | 5.73731 | 36294 ft | 370 kts | 258° |
| 2026-05-06 15:21 | 43.07847 | 5.70267 | 36442 ft | 371 kts | 258° |
| 2026-05-06 15:21 | 43.07462 | 5.66754 | 36603 ft | 372 kts | 258° |
| 2026-05-06 15:21 | 43.07078 | 5.63277 | 36758 ft | 373 kts | 258° |
| 2026-05-06 15:22 | 43.06688 | 5.59748 | 36905 ft | 375 kts | 258° |
| 2026-05-06 15:22 | 43.06302 | 5.56266 | 37030 ft | 376 kts | 258° |
| 2026-05-06 15:22 | 43.05908 | 5.52713 | 37152 ft | 377 kts | 258° |
| 2026-05-06 15:22 | 43.05515 | 5.49195 | 37290 ft | 378 kts | 259° |
| 2026-05-06 15:23 | 43.05116 | 5.45622 | 37407 ft | 379 kts | 259° |
| 2026-05-06 15:23 | 43.04715 | 5.42045 | 37528 ft | 380 kts | 259° |
| 2026-05-06 15:23 | 43.04314 | 5.38488 | 37642 ft | 381 kts | 259° |
| 2026-05-06 15:23 | 43.03914 | 5.34937 | 37752 ft | 382 kts | 258° |
| 2026-05-06 15:24 | 43.03500 | 5.31290 | 37834 ft | 384 kts | 258° |
| 2026-05-06 15:24 | 43.02264 | 5.24207 | 37905 ft | 385 kts | 249° |
| 2026-05-06 15:25 | 43.00030 | 5.17637 | 37907 ft | 383 kts | 239° |
| 2026-05-06 15:25 | 42.96886 | 5.11796 | 37907 ft | 384 kts | 229° |
| 2026-05-06 15:26 | 42.93059 | 5.06680 | 37900 ft | 385 kts | 225° |
| 2026-05-06 15:26 | 42.89187 | 5.01720 | 37909 ft | 385 kts | 225° |
| 2026-05-06 15:27 | 42.85257 | 4.96716 | 37909 ft | 385 kts | 225° |
| 2026-05-06 15:27 | 42.81362 | 4.91765 | 37909 ft | 386 kts | 225° |
| 2026-05-06 15:28 | 42.77447 | 4.86801 | 37904 ft | 385 kts | 225° |
| 2026-05-06 15:28 | 42.73530 | 4.81845 | 37927 ft | 385 kts | 225° |
| 2026-05-06 15:29 | 42.69616 | 4.76901 | 37916 ft | 384 kts | 225° |
| 2026-05-06 15:29 | 42.65722 | 4.71995 | 37921 ft | 384 kts | 225° |
| 2026-05-06 15:30 | 42.61832 | 4.67101 | 37914 ft | 384 kts | 225° |
| 2026-05-06 15:30 | 42.57894 | 4.62155 | 37919 ft | 384 kts | 225° |
| 2026-05-06 15:31 | 42.53989 | 4.57259 | 37913 ft | 384 kts | 225° |
| 2026-05-06 15:31 | 42.50069 | 4.52351 | 37910 ft | 383 kts | 225° |
| 2026-05-06 15:32 | 42.44206 | 4.45030 | 37927 ft | 385 kts | 225° |
| 2026-05-06 15:32 | 42.40277 | 4.40132 | 37924 ft | 384 kts | 225° |
| 2026-05-06 15:33 | 42.36343 | 4.35240 | 37934 ft | 384 kts | 225° |
| 2026-05-06 15:33 | 42.32408 | 4.30353 | 37931 ft | 384 kts | 225° |
| 2026-05-06 15:34 | 42.28473 | 4.25471 | 37939 ft | 384 kts | 225° |
| 2026-05-06 15:34 | 42.24558 | 4.20627 | 37941 ft | 383 kts | 225° |
| 2026-05-06 15:35 | 42.20622 | 4.15817 | 37947 ft | 384 kts | 223° |
| 2026-05-06 15:35 | 42.16394 | 4.11440 | 37942 ft | 386 kts | 217° |
| 2026-05-06 15:36 | 42.11814 | 4.07647 | 37939 ft | 388 kts | 212° |
| 2026-05-06 15:36 | 42.07105 | 4.04168 | 37945 ft | 388 kts | 213° |
| 2026-05-06 15:37 | 42.02364 | 4.00676 | 37950 ft | 387 kts | 213° |
| 2026-05-06 15:37 | 41.97613 | 3.97292 | 37947 ft | 388 kts | 210° |
| 2026-05-06 15:38 | 41.92644 | 3.94508 | 37965 ft | 392 kts | 205° |
| 2026-05-06 15:38 | 41.87418 | 3.92416 | 37956 ft | 395 kts | 199° |
| 2026-05-06 15:39 | 41.81995 | 3.91011 | 37954 ft | 398 kts | 196° |
| 2026-05-06 15:39 | 41.76556 | 3.89734 | 37959 ft | 398 kts | 195° |
| 2026-05-06 15:40 | 41.71117 | 3.88468 | 37962 ft | 398 kts | 196° |
| 2026-05-06 15:40 | 41.65642 | 3.87203 | 37962 ft | 398 kts | 196° |
| 2026-05-06 15:41 | 41.60220 | 3.85954 | 37953 ft | 397 kts | 196° |
| 2026-05-06 15:41 | 41.54762 | 3.84701 | 37934 ft | 397 kts | 196° |
| 2026-05-06 15:42 | 41.49348 | 3.83458 | 37931 ft | 398 kts | 196° |
| 2026-05-06 15:42 | 41.43912 | 3.82213 | 37940 ft | 396 kts | 196° |
| 2026-05-06 15:43 | 41.38477 | 3.80973 | 37936 ft | 396 kts | 196° |
| 2026-05-06 15:43 | 41.33047 | 3.79734 | 37931 ft | 396 kts | 196° |
| 2026-05-06 15:44 | 41.27638 | 3.78501 | 37946 ft | 396 kts | 196° |
| 2026-05-06 15:44 | 41.22224 | 3.77270 | 37937 ft | 396 kts | 196° |
| 2026-05-06 15:45 | 41.16852 | 3.75871 | 37934 ft | 393 kts | 200° |
| 2026-05-06 15:45 | 41.11648 | 3.73778 | 37943 ft | 388 kts | 206° |
| 2026-05-06 15:46 | 41.06628 | 3.71211 | 37934 ft | 388 kts | 207° |
| 2026-05-06 15:46 | 41.01584 | 3.68623 | 37945 ft | 389 kts | 207° |
| 2026-05-06 15:47 | 40.96555 | 3.66043 | 37933 ft | 388 kts | 207° |
| 2026-05-06 15:47 | 40.91542 | 3.63473 | 37595 ft | 386 kts | 207° |
| 2026-05-06 15:48 | 40.89041 | 3.62193 | 37342 ft | 383 kts | 207° |
| 2026-05-06 15:48 | 40.86579 | 3.60933 | 37100 ft | 379 kts | 207° |
| 2026-05-06 15:48 | 40.84127 | 3.59680 | 36854 ft | 376 kts | 207° |
| 2026-05-06 15:48 | 40.81718 | 3.58448 | 36594 ft | 374 kts | 207° |
| 2026-05-06 15:49 | 40.79282 | 3.57203 | 36303 ft | 373 kts | 207° |
| 2026-05-06 15:49 | 40.76856 | 3.55962 | 35991 ft | 373 kts | 207° |
| 2026-05-06 15:49 | 40.74457 | 3.54738 | 35558 ft | 374 kts | 208° |
| 2026-05-06 15:49 | 40.72024 | 3.53496 | 35056 ft | 374 kts | 207° |
| 2026-05-06 15:50 | 40.69623 | 3.52272 | 34546 ft | 375 kts | 208° |
| 2026-05-06 15:50 | 40.67177 | 3.51026 | 33918 ft | 375 kts | 208° |
| 2026-05-06 15:50 | 40.64750 | 3.49790 | 33343 ft | 374 kts | 207° |
| 2026-05-06 15:50 | 40.62364 | 3.48577 | 32796 ft | 372 kts | 207° |
| 2026-05-06 15:51 | 40.59955 | 3.47352 | 32246 ft | 371 kts | 207° |
| 2026-05-06 15:51 | 40.57534 | 3.46124 | 31657 ft | 370 kts | 207° |
| 2026-05-06 15:51 | 40.55166 | 3.44921 | 31054 ft | 370 kts | 207° |
| 2026-05-06 15:51 | 40.52754 | 3.43698 | 30460 ft | 370 kts | 207° |
| 2026-05-06 15:52 | 40.50366 | 3.42491 | 30039 ft | 365 kts | 207° |
| 2026-05-06 15:52 | 40.48026 | 3.41311 | 29623 ft | 361 kts | 206° |
| 2026-05-06 15:52 | 40.45632 | 3.40342 | 29176 ft | 362 kts | 200° |
| 2026-05-06 15:52 | 40.43154 | 3.39740 | 28708 ft | 365 kts | 194° |
| 2026-05-06 15:53 | 40.40604 | 3.39506 | 28227 ft | 368 kts | 188° |
| 2026-05-06 15:53 | 40.38053 | 3.39581 | 27749 ft | 368 kts | 185° |
| 2026-05-06 15:53 | 40.35494 | 3.39719 | 27275 ft | 366 kts | 185° |
| 2026-05-06 15:53 | 40.32950 | 3.39866 | 26817 ft | 364 kts | 185° |
| 2026-05-06 15:54 | 40.30415 | 3.40014 | 26353 ft | 362 kts | 185° |
| 2026-05-06 15:54 | 40.27901 | 3.40159 | 25895 ft | 360 kts | 185° |
| 2026-05-06 15:54 | 40.25411 | 3.40302 | 25452 ft | 358 kts | 185° |
| 2026-05-06 15:54 | 40.22940 | 3.40443 | 25019 ft | 356 kts | 185° |
| 2026-05-06 15:55 | 40.20477 | 3.40583 | 24579 ft | 354 kts | 184° |
| 2026-05-06 15:55 | 40.18011 | 3.40721 | 24126 ft | 354 kts | 184° |
| 2026-05-06 15:55 | 40.15528 | 3.40858 | 23929 ft | 363 kts | 184° |
| 2026-05-06 15:55 | 40.12974 | 3.40999 | 23924 ft | 367 kts | 184° |
| 2026-05-06 15:56 | 40.10410 | 3.41146 | 23926 ft | 367 kts | 184° |
| 2026-05-06 15:56 | 40.07878 | 3.41290 | 23924 ft | 368 kts | 184° |
| 2026-05-06 15:56 | 40.05305 | 3.41435 | 23920 ft | 367 kts | 184° |
| 2026-05-06 15:56 | 40.02782 | 3.41582 | 23705 ft | 363 kts | 184° |
| 2026-05-06 15:57 | 40.00250 | 3.41728 | 23158 ft | 362 kts | 184° |
| 2026-05-06 15:57 | 39.97762 | 3.41869 | 22606 ft | 361 kts | 184° |
| 2026-05-06 15:57 | 39.95267 | 3.42009 | 22087 ft | 359 kts | 183° |
| 2026-05-06 15:57 | 39.92762 | 3.42151 | 21589 ft | 357 kts | 183° |
| 2026-05-06 15:58 | 39.90304 | 3.42291 | 21249 ft | 353 kts | 183° |
| 2026-05-06 15:58 | 39.87835 | 3.42428 | 21031 ft | 354 kts | 183° |
| 2026-05-06 15:58 | 39.85360 | 3.42568 | 20966 ft | 355 kts | 183° |
| 2026-05-06 15:58 | 39.82877 | 3.42707 | 20940 ft | 354 kts | 183° |
| 2026-05-06 15:59 | 39.80444 | 3.42845 | 20694 ft | 350 kts | 183° |
| 2026-05-06 15:59 | 39.78012 | 3.42981 | 20165 ft | 350 kts | 183° |
| 2026-05-06 15:59 | 39.75574 | 3.43116 | 19621 ft | 349 kts | 183° |
| 2026-05-06 15:59 | 39.73174 | 3.43233 | 19130 ft | 346 kts | 185° |
| 2026-05-06 16:00 | 39.70867 | 3.42663 | 18591 ft | 335 kts | 209° |
| 2026-05-06 16:00 | 39.69016 | 3.40930 | 18089 ft | 327 kts | 230° |
| 2026-05-06 16:00 | 39.67798 | 3.38464 | 17602 ft | 323 kts | 245° |
| 2026-05-06 16:00 | 39.66823 | 3.35857 | 17117 ft | 321 kts | 245° |
| 2026-05-06 16:01 | 39.65837 | 3.33263 | 16613 ft | 321 kts | 244° |
| 2026-05-06 16:01 | 39.64849 | 3.30685 | 16070 ft | 322 kts | 244° |
| 2026-05-06 16:01 | 39.63855 | 3.28103 | 15536 ft | 322 kts | 244° |
| 2026-05-06 16:01 | 39.62862 | 3.25530 | 14993 ft | 313 kts | 244° |
| 2026-05-06 16:02 | 39.61898 | 3.23037 | 14453 ft | 301 kts | 244° |
| 2026-05-06 16:02 | 39.60992 | 3.20693 | 13956 ft | 288 kts | 244° |
| 2026-05-06 16:02 | 39.60099 | 3.18386 | 13456 ft | 284 kts | 244° |
| 2026-05-06 16:02 | 39.59215 | 3.16103 | 12964 ft | 285 kts | 244° |
| 2026-05-06 16:03 | 39.58328 | 3.13816 | 12472 ft | 286 kts | 244° |
| 2026-05-06 16:03 | 39.57431 | 3.11504 | 11970 ft | 288 kts | 244° |
| 2026-05-06 16:03 | 39.56538 | 3.09202 | 11432 ft | 286 kts | 244° |
| 2026-05-06 16:03 | 39.55652 | 3.06921 | 10875 ft | 279 kts | 244° |
| 2026-05-06 16:04 | 39.54779 | 3.04675 | 10338 ft | 280 kts | 244° |
| 2026-05-06 16:04 | 39.53900 | 3.02412 | 9789 ft | 283 kts | 244° |
| 2026-05-06 16:04 | 39.53015 | 3.00139 | 9250 ft | 286 kts | 244° |
| 2026-05-06 16:04 | 39.52130 | 2.97867 | 8698 ft | 279 kts | 244° |
| 2026-05-06 16:05 | 39.51273 | 2.95666 | 8169 ft | 274 kts | 245° |
| 2026-05-06 16:05 | 39.50412 | 2.93459 | 7658 ft | 274 kts | 245° |
| 2026-05-06 16:05 | 39.49555 | 2.91260 | 7101 ft | 273 kts | 244° |
| 2026-05-06 16:05 | 39.48701 | 2.89073 | 6557 ft | 275 kts | 244° |
| 2026-05-06 16:06 | 39.47837 | 2.86860 | 6109 ft | 275 kts | 244° |
| 2026-05-06 16:06 | 39.46981 | 2.84673 | 5733 ft | 274 kts | 244° |
| 2026-05-06 16:06 | 39.46124 | 2.82482 | 5384 ft | 271 kts | 244° |
| 2026-05-06 16:06 | 39.45270 | 2.80303 | 5035 ft | 272 kts | 244° |
| 2026-05-06 16:07 | 39.44418 | 2.78126 | 4688 ft | 273 kts | 244° |
| 2026-05-06 16:07 | 39.43653 | 2.75915 | 4346 ft | 272 kts | 250° |
| 2026-05-06 16:07 | 39.43017 | 2.73621 | 4001 ft | 271 kts | 252° |
| 2026-05-06 16:07 | 39.42415 | 2.71329 | 3656 ft | 270 kts | 252° |
| 2026-05-06 16:08 | 39.41816 | 2.69007 | 3311 ft | 268 kts | 252° |
| 2026-05-06 16:08 | 39.41243 | 2.66752 | 3025 ft | 265 kts | 252° |
| 2026-05-06 16:08 | 39.40694 | 2.64566 | 2986 ft | 248 kts | 252° |
| 2026-05-06 16:08 | 39.40174 | 2.62487 | 2986 ft | 241 kts | 252° |
| 2026-05-06 16:09 | 39.39666 | 2.60444 | 2978 ft | 235 kts | 252° |
| 2026-05-06 16:09 | 39.39171 | 2.58451 | 2995 ft | 233 kts | 253° |
| 2026-05-06 16:09 | 39.38993 | 2.56389 | 2977 ft | 229 kts | 282° |
| 2026-05-06 16:09 | 39.39668 | 2.54577 | 2986 ft | 225 kts | 316° |
| 2026-05-06 16:10 | 39.40893 | 2.53346 | 3002 ft | 219 kts | 332° |
| 2026-05-06 16:10 | 39.42273 | 2.52811 | 2974 ft | 206 kts | 6° |
| 2026-05-06 16:10 | 39.43659 | 2.53175 | 2833 ft | 201 kts | 19° |
| 2026-05-06 16:10 | 39.44982 | 2.53761 | 2544 ft | 201 kts | 22° |
| 2026-05-06 16:11 | 39.46304 | 2.54409 | 2509 ft | 202 kts | 28° |
| 2026-05-06 16:11 | 39.47366 | 2.55562 | 2496 ft | 198 kts | 53° |
| 2026-05-06 16:11 | 39.48116 | 2.56992 | 2419 ft | 192 kts | 59° |
| 2026-05-06 16:11 | 39.48784 | 2.58453 | 2188 ft | 185 kts | 60° |
| 2026-05-06 16:12 | 39.49421 | 2.59855 | 2026 ft | 174 kts | 60° |
| 2026-05-06 16:12 | 39.50026 | 2.61155 | 1773 ft | 165 kts | 60° |
| 2026-05-06 16:12 | 39.50596 | 2.62364 | 1550 ft | 149 kts | 60° |
| 2026-05-06 16:12 | 39.51117 | 2.63465 | 1328 ft | 139 kts | 60° |
| 2026-05-06 16:13 | 39.51620 | 2.64530 | 1155 ft | 138 kts | 59° |
| 2026-05-06 16:13 | 39.52120 | 2.65585 | 986 ft | 138 kts | 60° |
| 2026-05-06 16:13 | 39.52626 | 2.66656 | 813 ft | 138 kts | 59° |
| 2026-05-06 16:13 | 39.53121 | 2.67703 | 638 ft | 137 kts | 59° |
| 2026-05-06 16:14 | 39.53624 | 2.68769 | 455 ft | 137 kts | 58° |
| 2026-05-06 16:14 | 39.54124 | 2.69822 | 278 ft | 136 kts | 59° |
| 2026-05-06 16:14 | 39.54622 | 2.70855 | 110 ft | 136 kts | 59° |
| 2026-05-06 16:14 | 39.55101 | 2.71902 | 26 ft | 128 kts | 56° |
| 2026-05-06 16:15 | 39.55422 | 2.72571 | 24 ft | 47 kts | 60° |
| 2026-05-06 16:15 | 39.55495 | 2.72897 | 24 ft | 29 kts | 87° |
| 2026-05-06 16:15 | 39.55497 | 2.73042 | 24 ft | 7 kts | 89° |
| 2026-05-06 16:15 | 39.55498 | 2.73112 | 24 ft | 9 kts | 88° |
| 2026-05-06 16:16 | 39.55515 | 2.73213 | 24 ft | 12 kts | 61° |
| 2026-05-06 16:16 | 39.55562 | 2.73311 | 25 ft | 12 kts | 57° |
| 2026-05-06 16:16 | 39.55601 | 2.73389 | 25 ft | 4 kts | 57° |
| 2026-05-06 16:16 | 39.55606 | 2.73398 | 25 ft | 0 kts | 57° |
| 2026-05-06 16:17 | 39.55616 | 2.73419 | 25 ft | 6 kts | 60° |
| 2026-05-06 16:17 | 39.55596 | 2.73520 | 25 ft | 15 kts | 151° |
| 2026-05-06 16:17 | 39.55507 | 2.73590 | 26 ft | 14 kts | 148° |
| 2026-05-06 16:17 | 39.55420 | 2.73662 | 27 ft | 14 kts | 147° |
| 2026-05-06 16:18 | 39.55335 | 2.73727 | 29 ft | 13 kts | 151° |
| 2026-05-06 16:18 | 39.55255 | 2.73787 | 31 ft | 12 kts | 148° |
| 2026-05-06 16:18 | 39.55188 | 2.73826 | 32 ft | 9 kts | 188° |
| 2026-05-06 16:18 | 39.55157 | 2.73783 | 32 ft | 5 kts | 227° |
| 2026-05-06 16:19 | 39.55122 | 2.73783 | 32 ft | 5 kts | 168° |
| 2026-05-06 16:19 | 39.55086 | 2.73748 | 32 ft | 7 kts | 231° |
| 2026-05-06 16:19 | 39.55059 | 2.73700 | 31 ft | 0 kts | 237° |
| 2026-05-06 16:19 | 39.55054 | 2.73690 | 31 ft | 2 kts | 236° |
| 2026-05-06 16:20 | 39.55053 | 2.73688 | 31 ft | 0 kts | 236° |